createdAt,value
2019-04-03T00:00:12.009Z,54.01
2019-04-03T00:02:40.488Z,54.28
2019-04-03T00:05:08.981Z,54.15
2019-04-03T00:07:37.442Z,54.21
2019-04-03T00:10:07.230Z,54.59
2019-04-03T00:12:35.845Z,54.58
2019-04-03T00:15:05.000Z,54.74
2019-04-03T00:17:33.532Z,54.75
2019-04-03T00:20:02.043Z,54.84
2019-04-03T00:22:30.501Z,55.04
2019-04-03T00:24:59.411Z,55.21
2019-04-03T00:27:28.031Z,55.25
2019-04-03T00:29:56.732Z,55.92
2019-04-03T00:32:25.201Z,56.03
2019-04-03T00:34:53.943Z,56.13
2019-04-03T00:37:23.174Z,55.84
2019-04-03T00:39:53.875Z,55.98
2019-04-03T00:42:24.176Z,55.92
2019-04-03T00:44:54.709Z,56.08
2019-04-03T00:47:25.087Z,56.71
2019-04-03T00:49:56.215Z,56.26
2019-04-03T00:52:23.833Z,56.47
2019-04-03T00:54:52.308Z,56.43
2019-04-03T00:57:20.822Z,56.36
2019-04-03T00:59:49.686Z,56.86
2019-04-03T01:02:18.165Z,56.94
2019-04-03T01:04:46.660Z,56.95
2019-04-03T01:07:15.139Z,57.02
2019-04-03T01:09:43.615Z,57.08
2019-04-03T01:12:12.080Z,57.03
2019-04-03T01:14:40.580Z,57.25
2019-04-03T01:17:09.043Z,57.50
2019-04-03T01:19:37.506Z,57.43
2019-04-03T01:22:07.776Z,57.72
2019-04-03T01:24:36.716Z,57.57
2019-04-03T01:27:06.395Z,57.46
2019-04-03T01:29:34.895Z,57.63
2019-04-03T01:32:03.623Z,57.61
2019-04-03T01:34:32.132Z,57.46
2019-04-03T01:37:00.878Z,57.84
2019-04-03T01:39:29.358Z,57.84
2019-04-03T01:41:57.874Z,57.71
2019-04-03T01:44:26.344Z,57.66
2019-04-03T01:46:57.423Z,57.67
2019-04-03T01:49:28.011Z,57.73
2019-04-03T01:51:55.578Z,58.12
2019-04-03T01:54:24.054Z,58.40
2019-04-03T01:56:52.517Z,58.46
2019-04-03T01:59:21.305Z,58.38
2019-04-03T02:01:50.041Z,58.37
2019-04-03T02:04:18.529Z,58.46
2019-04-03T02:06:47.003Z,58.45
2019-04-03T02:09:16.309Z,58.39
2019-04-03T02:11:44.861Z,58.79
2019-04-03T02:14:13.512Z,59.08
2019-04-03T02:16:41.995Z,59.22
2019-04-03T02:19:10.506Z,59.44
2019-04-03T02:21:38.978Z,59.19
2019-04-03T02:24:07.442Z,59.28
2019-04-03T02:26:35.971Z,59.32
2019-04-03T02:29:06.612Z,59.08
2019-04-03T02:31:34.690Z,59.20
2019-04-03T02:34:03.389Z,59.35
2019-04-03T02:36:31.853Z,59.42
2019-04-03T02:39:00.533Z,59.98
2019-04-03T02:41:28.978Z,60.07
2019-04-03T02:43:57.456Z,59.93
2019-04-03T02:46:28.072Z,60.05
2019-04-03T02:48:56.213Z,60.48
2019-04-03T02:51:24.869Z,60.70
2019-04-03T02:53:53.349Z,60.77
2019-04-03T02:56:22.129Z,60.89
2019-04-03T02:58:53.561Z,60.92
2019-04-03T03:01:20.863Z,61.47
2019-04-03T03:03:50.071Z,61.45
2019-04-03T03:06:18.992Z,61.48
2019-04-03T03:08:47.730Z,61.55
2019-04-03T03:11:16.226Z,61.79
2019-04-03T03:13:44.790Z,61.93
2019-04-03T03:16:14.537Z,61.97
2019-04-03T03:18:43.528Z,61.73
2019-04-03T03:21:14.297Z,61.59
2019-04-03T03:23:42.872Z,61.40
2019-04-03T03:26:11.612Z,61.44
2019-04-03T03:28:40.070Z,61.26
2019-04-03T03:31:08.599Z,61.53
2019-04-03T03:33:40.088Z,61.72
2019-04-03T03:36:08.076Z,61.81
2019-04-03T03:38:39.405Z,61.62
2019-04-03T03:41:06.954Z,61.73
2019-04-03T03:43:38.227Z,62.08
2019-04-03T03:46:05.970Z,62.08
2019-04-03T03:48:34.451Z,61.82
2019-04-03T03:51:03.307Z,61.70
2019-04-03T03:53:31.829Z,61.64
2019-04-03T03:56:00.718Z,61.60
2019-04-03T03:58:29.426Z,61.53
2019-04-03T04:01:00.303Z,61.63
2019-04-03T04:03:28.334Z,61.75
2019-04-03T04:05:56.998Z,61.97
2019-04-03T04:08:25.478Z,62.27
2019-04-03T04:10:58.195Z,62.21
2019-04-03T04:13:24.311Z,62.11
2019-04-03T04:15:52.717Z,62.04
2019-04-03T04:18:23.713Z,62.05
2019-04-03T04:20:51.411Z,62.57
2019-04-03T04:23:23.112Z,62.83
2019-04-03T04:25:50.193Z,63.16
2019-04-03T04:28:18.675Z,62.96
2019-04-03T04:30:47.484Z,62.79
2019-04-03T04:33:16.960Z,62.54
2019-04-03T04:35:46.483Z,62.46
2019-04-03T04:38:14.951Z,62.40
2019-04-03T04:40:43.659Z,62.38
2019-04-03T04:43:12.099Z,62.43
2019-04-03T04:45:42.212Z,62.49
2019-04-03T04:48:10.776Z,62.95
2019-04-03T04:50:39.278Z,63.12
2019-04-03T04:53:07.835Z,63.13
2019-04-03T04:55:37.727Z,63.47
2019-04-03T04:58:06.520Z,63.78
2019-04-03T05:00:35.028Z,63.88
2019-04-03T05:03:03.444Z,64.20
2019-04-03T05:05:31.954Z,60.35
2019-04-03T05:08:02.205Z,57.43
2019-04-03T05:10:30.723Z,57.78
2019-04-03T05:12:59.298Z,59.85
2019-04-03T05:15:27.775Z,61.51
2019-04-03T05:17:57.721Z,62.68
2019-04-03T05:20:26.465Z,63.51
2019-04-03T05:22:55.694Z,63.80
2019-04-03T05:25:24.229Z,63.97
2019-04-03T05:27:52.720Z,64.03
2019-04-03T05:30:30.485Z,64.02
2019-04-03T05:32:59.632Z,64.03
2019-04-03T05:35:28.141Z,64.00
2019-04-03T05:37:56.869Z,63.98
2019-04-03T05:40:26.111Z,63.91
2019-04-03T05:42:55.028Z,63.84
2019-04-03T05:45:23.506Z,63.86
2019-04-03T05:47:52.180Z,63.91
2019-04-03T05:50:20.638Z,63.82
2019-04-03T05:52:49.161Z,63.79
2019-04-03T05:55:17.833Z,63.69
2019-04-03T05:57:46.275Z,63.60
2019-04-03T06:00:14.751Z,63.53
2019-04-03T06:02:43.210Z,63.56
2019-04-03T06:05:13.424Z,63.52
2019-04-03T06:07:41.963Z,63.49
2019-04-03T06:10:10.546Z,63.55
2019-04-03T06:12:39.488Z,63.53
2019-04-03T06:15:09.858Z,63.49
2019-04-03T06:17:38.250Z,63.52
2019-04-03T06:20:10.389Z,63.47
2019-04-03T06:22:37.783Z,63.31
2019-04-03T06:25:06.679Z,63.17
2019-04-03T06:27:35.356Z,63.20
2019-04-03T06:30:04.052Z,63.24
2019-04-03T06:32:32.533Z,63.26
2019-04-03T06:35:00.995Z,63.29
2019-04-03T06:37:29.468Z,63.64
2019-04-03T06:39:57.966Z,63.98
2019-04-03T06:42:26.476Z,64.29
2019-04-03T06:44:55.179Z,64.31
2019-04-03T06:47:24.067Z,63.86
2019-04-03T06:49:52.597Z,63.53
2019-04-03T06:52:21.508Z,63.28
2019-04-03T06:54:50.684Z,63.15
2019-04-03T06:57:19.157Z,63.04
2019-04-03T06:59:48.702Z,62.92
2019-04-03T07:02:17.435Z,62.85
2019-04-03T07:04:45.905Z,63.04
2019-04-03T07:07:14.379Z,63.05
2019-04-03T07:09:42.902Z,62.97
2019-04-03T07:12:11.390Z,62.96
2019-04-03T07:14:39.937Z,63.19
2019-04-03T07:17:08.728Z,63.47
2019-04-03T07:19:37.903Z,63.65
2019-04-03T07:22:07.547Z,63.67
2019-04-03T07:24:36.328Z,63.42
2019-04-03T07:27:06.302Z,63.35
2019-04-03T07:29:35.162Z,63.21
2019-04-03T07:32:03.679Z,62.86
2019-04-03T07:34:34.505Z,62.63
2019-04-03T07:37:02.383Z,62.72
2019-04-03T07:39:30.844Z,62.97
2019-04-03T07:41:59.420Z,62.94
2019-04-03T07:44:29.905Z,62.73
2019-04-03T07:46:58.078Z,62.37
2019-04-03T07:49:26.738Z,62.07
2019-04-03T07:51:55.192Z,61.74
2019-04-03T07:54:26.120Z,61.62
2019-04-03T07:56:56.802Z,61.67
2019-04-03T07:59:24.142Z,61.64
2019-04-03T08:01:52.623Z,61.60
2019-04-03T08:04:23.530Z,61.58
2019-04-03T08:06:51.313Z,61.64
2019-04-03T08:09:20.405Z,61.58
2019-04-03T08:11:48.968Z,61.47
2019-04-03T08:14:19.406Z,61.35
2019-04-03T08:16:48.765Z,61.23
2019-04-03T08:19:17.892Z,61.14
2019-04-03T08:21:46.496Z,61.13
2019-04-03T08:24:14.991Z,61.08
2019-04-03T08:26:43.455Z,61.10
2019-04-03T08:29:12.102Z,61.09
2019-04-03T08:31:43.195Z,61.04
2019-04-03T08:34:16.798Z,61.01
2019-04-03T08:36:41.646Z,61.21
2019-04-03T08:39:10.097Z,61.12
2019-04-03T08:41:38.943Z,60.96
2019-04-03T08:44:08.597Z,60.80
2019-04-03T08:46:37.619Z,60.69
2019-04-03T08:49:06.135Z,60.60
2019-04-03T08:51:34.986Z,60.58
2019-04-03T08:54:03.481Z,60.64
2019-04-03T08:56:32.218Z,60.58
2019-04-03T08:59:00.704Z,60.61
2019-04-03T09:01:29.179Z,60.58
2019-04-03T09:03:57.667Z,60.68
2019-04-03T09:06:26.372Z,60.76
2019-04-03T09:08:57.191Z,60.76
2019-04-03T09:11:25.450Z,60.70
2019-04-03T09:13:54.922Z,60.55
2019-04-03T09:16:24.443Z,60.44
2019-04-03T09:18:52.935Z,60.48
2019-04-03T09:21:21.777Z,60.45
2019-04-03T09:23:50.260Z,60.73
2019-04-03T09:26:18.739Z,61.18
2019-04-03T09:28:47.250Z,61.09
2019-04-03T09:31:17.133Z,61.11
2019-04-03T09:33:46.041Z,61.15
2019-04-03T09:36:14.632Z,61.28
2019-04-03T09:38:43.354Z,61.61
2019-04-03T09:41:12.030Z,62.02
2019-04-03T09:43:40.574Z,62.43
2019-04-03T09:46:09.052Z,62.86
2019-04-03T09:48:37.953Z,63.20
2019-04-03T09:51:09.123Z,63.40
2019-04-03T09:53:36.678Z,63.41
2019-04-03T09:56:07.314Z,63.42
2019-04-03T09:58:35.815Z,63.58
2019-04-03T10:01:05.039Z,64.07
2019-04-03T10:03:33.632Z,64.15
2019-04-03T10:06:02.019Z,64.31
2019-04-03T10:08:30.504Z,64.37
2019-04-03T10:10:59.150Z,64.40
2019-04-03T10:13:27.966Z,64.59
2019-04-03T10:15:56.392Z,64.80
2019-04-03T10:18:25.012Z,64.96
2019-04-03T10:20:53.400Z,65.10
2019-04-03T10:23:22.182Z,65.55
2019-04-03T10:25:53.102Z,65.46
2019-04-03T10:28:21.103Z,65.66
2019-04-03T10:30:52.468Z,65.96
2019-04-03T10:33:19.985Z,66.12
2019-04-03T10:35:48.471Z,66.23
2019-04-03T10:38:18.570Z,66.28
2019-04-03T10:40:47.120Z,66.34
2019-04-03T10:43:15.594Z,66.56
2019-04-03T10:45:44.134Z,66.52
2019-04-03T10:48:12.871Z,66.45
2019-04-03T10:50:41.419Z,66.45
2019-04-03T10:53:10.174Z,66.81
2019-04-03T10:55:39.092Z,66.70
2019-04-03T10:58:08.542Z,66.74
2019-04-03T11:00:37.574Z,67.10
2019-04-03T11:03:06.269Z,66.98
2019-04-03T11:05:34.782Z,66.79
2019-04-03T11:08:03.655Z,67.02
2019-04-03T11:10:32.408Z,67.02
2019-04-03T11:13:02.849Z,67.02
2019-04-03T11:15:31.320Z,66.88
2019-04-03T11:17:59.900Z,67.12
2019-04-03T11:20:28.472Z,67.13
2019-04-03T11:23:05.660Z,67.40
2019-04-03T11:25:27.210Z,67.50
2019-04-03T11:27:56.398Z,67.79
2019-04-03T11:30:25.511Z,67.63
2019-04-03T11:32:54.102Z,67.48
2019-04-03T11:35:22.919Z,67.49
2019-04-03T11:37:51.326Z,67.47
2019-04-03T11:40:20.025Z,67.24
2019-04-03T11:42:48.677Z,67.18
2019-04-03T11:45:17.246Z,67.33
2019-04-03T11:47:46.407Z,67.42
2019-04-03T11:50:15.536Z,67.38
2019-04-03T11:52:44.318Z,67.17
2019-04-03T11:55:12.837Z,67.44
2019-04-03T11:57:41.290Z,67.81
2019-04-03T12:00:14.365Z,68.14
2019-04-03T12:02:44.457Z,68.10
2019-04-03T12:05:16.231Z,68.06
2019-04-03T12:07:43.471Z,68.11
2019-04-03T12:10:11.945Z,68.19
2019-04-03T12:12:42.090Z,68.23
2019-04-03T12:15:10.885Z,68.24
2019-04-03T12:17:39.298Z,68.12
2019-04-03T12:20:09.285Z,68.45
2019-04-03T12:22:38.067Z,68.50
2019-04-03T12:25:06.548Z,68.62
2019-04-03T12:27:36.023Z,68.76
2019-04-03T12:30:07.255Z,68.68
2019-04-03T12:32:39.360Z,68.63
2019-04-03T12:35:07.301Z,68.63
2019-04-03T12:37:37.046Z,68.62
2019-04-03T12:40:06.558Z,69.00
2019-04-03T12:42:35.723Z,69.16
2019-04-03T12:45:05.285Z,69.55
2019-04-03T12:47:34.069Z,69.68
2019-04-03T12:50:02.544Z,69.42
2019-04-03T12:52:31.139Z,69.01
2019-04-03T12:54:59.696Z,68.39
2019-04-03T12:57:28.101Z,67.83
2019-04-03T12:59:56.720Z,67.51
2019-04-03T13:02:25.190Z,67.28
2019-04-03T13:04:53.716Z,67.59
2019-04-03T13:07:22.117Z,67.81
2019-04-03T13:09:50.597Z,67.51
2019-04-03T13:12:22.073Z,68.06
2019-04-03T13:14:49.690Z,67.88
2019-04-03T13:17:19.028Z,67.87
2019-04-03T13:19:47.654Z,67.53
2019-04-03T13:22:18.017Z,67.13
2019-04-03T13:24:48.299Z,66.19
2019-04-03T13:27:16.785Z,65.22
2019-04-03T13:29:45.254Z,64.47
2019-04-03T13:32:16.796Z,63.85
2019-04-03T13:34:43.896Z,63.49
2019-04-03T13:37:12.393Z,63.60
2019-04-03T13:39:40.820Z,63.90
2019-04-03T13:42:09.449Z,64.08
2019-04-03T13:44:37.912Z,64.83
2019-04-03T13:47:08.589Z,65.15
2019-04-03T13:49:36.718Z,65.37
2019-04-03T13:52:08.541Z,65.82
2019-04-03T13:54:35.735Z,65.96
2019-04-03T13:57:04.283Z,66.06
2019-04-03T13:59:32.691Z,66.14
2019-04-03T14:02:01.424Z,66.11
2019-04-03T14:04:30.142Z,66.15
2019-04-03T14:06:58.600Z,66.38
2019-04-03T14:09:27.356Z,66.59
2019-04-03T14:11:55.878Z,66.69
2019-04-03T14:14:24.574Z,66.63
2019-04-03T14:16:53.036Z,66.60
2019-04-03T14:19:24.313Z,66.63
2019-04-03T14:21:51.709Z,66.69
2019-04-03T14:24:20.286Z,66.84
2019-04-03T14:26:48.694Z,66.91
2019-04-03T14:29:17.180Z,67.06
2019-04-03T14:31:47.988Z,67.14
2019-04-03T14:34:15.914Z,67.23
2019-04-03T14:36:44.686Z,67.32
2019-04-03T14:39:13.864Z,66.08
2019-04-03T14:41:42.371Z,63.02
2019-04-03T14:44:10.842Z,60.56
2019-04-03T14:46:39.346Z,59.58
2019-04-03T14:49:07.838Z,59.55
2019-04-03T14:51:36.664Z,59.62
2019-04-03T14:54:07.730Z,58.56
2019-04-03T14:56:35.972Z,58.03
2019-04-03T14:59:04.704Z,57.48
2019-04-03T15:01:33.235Z,57.72
2019-04-03T15:04:02.270Z,57.77
2019-04-03T15:06:31.059Z,57.77
2019-04-03T15:08:59.530Z,57.87
2019-04-03T15:11:28.022Z,57.96
2019-04-03T15:13:56.722Z,58.11
2019-04-03T15:16:25.435Z,59.91
2019-04-03T15:18:53.834Z,62.53
2019-04-03T15:21:23.711Z,63.99
2019-04-03T15:23:52.510Z,64.84
2019-04-03T15:26:22.226Z,65.21
2019-04-03T15:28:50.923Z,65.36
2019-04-03T15:31:19.358Z,65.54
2019-04-03T15:33:48.128Z,65.37
2019-04-03T15:36:16.562Z,65.03
2019-04-03T15:38:46.295Z,64.65
2019-04-03T15:41:14.991Z,64.13
2019-04-03T15:43:45.602Z,63.68
2019-04-03T15:46:14.101Z,63.28
2019-04-03T15:48:42.623Z,62.67
2019-04-03T15:51:11.105Z,61.87
2019-04-03T15:53:39.585Z,60.75
2019-04-03T15:56:08.067Z,59.97
2019-04-03T15:58:36.536Z,59.83
2019-04-03T16:01:07.883Z,59.46
2019-04-03T16:03:35.464Z,59.78
2019-04-03T16:06:04.756Z,60.16
2019-04-03T16:08:33.661Z,59.94
2019-04-03T16:11:02.738Z,59.73
2019-04-03T16:13:31.252Z,59.52
2019-04-03T16:16:01.548Z,57.72
2019-04-03T16:18:29.937Z,55.72
2019-04-03T16:20:58.393Z,55.15
2019-04-03T16:23:27.248Z,54.31
2019-04-03T16:25:55.720Z,53.76
2019-04-03T16:28:24.164Z,54.00
2019-04-03T16:30:53.966Z,53.85
2019-04-03T16:33:24.637Z,53.61
2019-04-03T16:35:53.862Z,53.16
2019-04-03T16:38:22.890Z,53.16
2019-04-03T16:40:51.406Z,53.42
2019-04-03T16:43:22.153Z,53.45
2019-04-03T16:45:51.310Z,53.39
2019-04-03T16:48:19.857Z,54.05
2019-04-03T16:50:48.592Z,54.63
2019-04-03T16:53:19.283Z,56.47
2019-04-03T16:55:47.622Z,58.22
2019-04-03T16:58:16.109Z,59.33
2019-04-03T17:00:44.631Z,60.08
2019-04-03T17:03:13.438Z,60.66
2019-04-03T17:05:43.694Z,60.93
2019-04-03T17:08:12.325Z,61.04
2019-04-03T17:10:41.203Z,60.95
2019-04-03T17:13:09.727Z,61.04
2019-04-03T17:15:38.176Z,61.23
2019-04-03T17:18:06.633Z,61.53
2019-04-03T17:20:35.588Z,61.67
2019-04-03T17:23:04.224Z,61.80
2019-04-03T17:25:43.943Z,61.96
2019-04-03T17:28:07.996Z,62.13
2019-04-03T17:30:33.220Z,62.25
2019-04-03T17:33:02.916Z,62.29
2019-04-03T17:35:31.825Z,62.36
2019-04-03T17:38:00.934Z,62.47
2019-04-03T17:40:30.097Z,62.53
2019-04-03T17:42:58.878Z,62.66
2019-04-03T17:45:27.441Z,62.27
2019-04-03T17:47:55.905Z,62.50
2019-04-03T17:50:24.389Z,62.78
2019-04-03T17:52:52.869Z,63.03
2019-04-03T17:55:21.346Z,63.21
2019-04-03T17:57:49.815Z,63.35
2019-04-03T18:00:20.944Z,63.31
2019-04-03T18:02:49.424Z,62.62
2019-04-03T18:05:17.901Z,63.04
2019-04-03T18:07:46.354Z,63.46
2019-04-03T18:10:14.825Z,63.80
2019-04-03T18:12:45.665Z,64.03
2019-04-03T18:15:13.745Z,64.24
2019-04-03T18:17:42.223Z,64.33
2019-04-03T18:20:13.318Z,64.39
2019-04-03T18:22:41.327Z,64.44
2019-04-03T18:25:10.193Z,64.40
2019-04-03T18:27:38.995Z,64.44
2019-04-03T18:30:11.168Z,64.44
2019-04-03T18:32:37.653Z,64.43
2019-04-03T18:35:07.238Z,64.46
2019-04-03T18:37:36.006Z,64.50
2019-04-03T18:40:05.131Z,64.53
2019-04-03T18:42:33.608Z,64.67
2019-04-03T18:45:02.072Z,64.80
2019-04-03T18:47:40.509Z,64.84
2019-04-03T18:50:03.539Z,64.94
2019-04-03T18:52:31.548Z,64.96
2019-04-03T18:55:00.018Z,65.03
2019-04-03T18:57:28.474Z,65.08
2019-04-03T19:00:00.386Z,65.14
2019-04-03T19:02:27.127Z,65.19
2019-04-03T19:05:01.694Z,65.30
2019-04-03T19:07:25.804Z,65.45
2019-04-03T19:10:06.021Z,65.64
2019-04-03T19:12:34.905Z,65.86
2019-04-03T19:14:54.922Z,66.03
2019-04-03T19:17:24.825Z,66.04
2019-04-03T19:20:04.001Z,66.01
2019-04-03T19:22:25.617Z,66.02
2019-04-03T19:24:53.948Z,62.71
2019-04-03T19:27:22.435Z,59.11
2019-04-03T19:29:50.927Z,61.37
2019-04-03T19:32:19.458Z,63.54
2019-04-03T19:34:48.281Z,64.85
2019-04-03T19:37:16.725Z,65.62
2019-04-03T19:39:45.249Z,66.04
2019-04-03T19:42:14.076Z,66.23
2019-04-03T19:44:42.560Z,66.43
2019-04-03T19:47:11.276Z,66.53
2019-04-03T19:49:40.296Z,66.58
2019-04-03T19:52:08.959Z,66.74
2019-04-03T19:54:37.409Z,67.05
2019-04-03T19:57:05.901Z,67.35
2019-04-03T19:59:34.746Z,67.30
2019-04-03T20:02:03.242Z,67.24
2019-04-03T20:04:31.698Z,67.21
2019-04-03T20:07:00.206Z,67.27
2019-04-03T20:09:31.877Z,67.28
2019-04-03T20:11:59.174Z,67.39
2019-04-03T20:14:27.645Z,67.56
2019-04-03T20:16:58.448Z,67.71
2019-04-03T20:19:27.210Z,67.81
2019-04-03T20:21:55.813Z,67.84
2019-04-03T20:24:25.257Z,67.74
2019-04-03T20:26:53.876Z,67.82
2019-04-03T20:29:22.362Z,67.95
2019-04-03T20:31:50.855Z,68.02
2019-04-03T20:34:19.374Z,68.03
2019-04-03T20:36:50.951Z,67.97
2019-04-03T20:39:18.057Z,67.95
2019-04-03T20:41:46.534Z,67.92
2019-04-03T20:44:16.932Z,68.03
2019-04-03T20:46:45.183Z,68.27
2019-04-03T20:49:13.672Z,68.17
2019-04-03T20:51:42.166Z,68.14
2019-04-03T20:54:11.930Z,68.17
2019-04-03T20:56:40.477Z,68.22
2019-04-03T20:59:11.238Z,68.29
2019-04-03T21:01:39.188Z,68.40
2019-04-03T21:04:07.641Z,68.45
2019-04-03T21:06:37.517Z,68.51
2019-04-03T21:09:06.839Z,68.54
2019-04-03T21:11:35.299Z,68.41
2019-04-03T21:14:05.636Z,68.47
2019-04-03T21:16:34.265Z,68.47
2019-04-03T21:19:02.750Z,68.44
2019-04-03T21:21:31.506Z,68.39
2019-04-03T21:23:59.992Z,68.34
2019-04-03T21:26:28.461Z,68.39
2019-04-03T21:28:56.950Z,68.46
2019-04-03T21:31:26.520Z,68.47
2019-04-03T21:33:55.043Z,68.48
2019-04-03T21:36:23.581Z,68.41
2019-04-03T21:38:52.073Z,68.41
2019-04-03T21:41:21.299Z,68.37
2019-04-03T21:43:50.176Z,68.43
2019-04-03T21:46:18.681Z,68.43
2019-04-03T21:48:47.161Z,68.45
2019-04-03T21:51:15.617Z,68.38
2019-04-03T21:53:44.089Z,68.34
2019-04-03T21:56:12.547Z,68.33
2019-04-03T21:58:40.998Z,68.36
2019-04-03T22:01:18.769Z,68.37
2019-04-03T22:03:50.495Z,68.36
2019-04-03T22:06:17.971Z,68.31
2019-04-03T22:08:46.451Z,68.39
2019-04-03T22:11:14.940Z,68.45
2019-04-03T22:13:43.482Z,68.48
2019-04-03T22:16:11.977Z,68.37
2019-04-03T22:18:40.442Z,68.27
2019-04-03T22:21:09.175Z,68.26
2019-04-03T22:23:37.651Z,68.24
2019-04-03T22:26:06.131Z,68.18
2019-04-03T22:28:34.598Z,68.21
2019-04-03T22:31:03.088Z,68.12
2019-04-03T22:33:31.568Z,68.12
2019-04-03T22:36:01.284Z,68.08
2019-04-03T22:38:30.329Z,67.99
2019-04-03T22:40:58.818Z,67.90
2019-04-03T22:43:27.856Z,67.85
2019-04-03T22:45:56.342Z,67.78
2019-04-03T22:48:26.766Z,67.71
2019-04-03T22:50:55.362Z,67.68
2019-04-03T22:53:23.829Z,67.65
2019-04-03T22:55:52.314Z,67.59
2019-04-03T22:58:21.546Z,67.51
2019-04-03T23:00:50.136Z,67.41
2019-04-03T23:03:18.731Z,67.53
2019-04-03T23:05:48.073Z,67.69
2019-04-03T23:08:17.169Z,67.67
2019-04-03T23:10:45.627Z,67.54
2019-04-03T23:13:14.092Z,67.81
2019-04-03T23:15:42.594Z,67.65
2019-04-03T23:18:11.318Z,67.70
2019-04-03T23:20:40.101Z,67.59
2019-04-03T23:23:08.584Z,67.37
2019-04-03T23:25:37.383Z,67.18
2019-04-03T23:28:05.893Z,67.18
2019-04-03T23:30:34.437Z,67.25
2019-04-03T23:33:02.901Z,67.21
2019-04-03T23:35:31.351Z,67.50
2019-04-03T23:37:59.890Z,67.13
2019-04-03T23:40:28.365Z,67.99
2019-04-03T23:42:56.837Z,68.88
2019-04-03T23:45:27.690Z,68.56
2019-04-03T23:47:56.165Z,68.75
2019-04-03T23:50:24.657Z,69.11
2019-04-03T23:52:53.152Z,69.35
2019-04-03T23:55:21.620Z,69.33
2019-04-03T23:57:50.069Z,69.50
